Time;durP1;ratioP1;P1;durP2;ratioP2;P2;SDS_P1;SDS_P2;PMS_P1;PMS_P2;Temp;Humidity;BMP_temperature;BMP_pressure;BME280_temperature;BME280_humidity;BME280_pressure;Samples;Min_cycle;Max_cycle;Signal;HPM_P1;HPM_P2
2021/12/19 00:02:41;;;;;;;11.88;3.13;;;;;;;;;;5052198;28;20071;-88
2021/12/19 00:10:22;;;;;;;7.45;1.60;;;;;;;;;;5054867;28;20074;-88
2021/12/19 00:12:47;;;;;;;9.57;1.77;;;;;;;;;;5034326;28;20025;-88
2021/12/19 00:15:13;;;;;;;7.25;1.50;;;;;;;;;;5033768;28;20013;-88
2021/12/19 00:17:38;;;;;;;5.25;1.25;;;;;;;;;;5051762;28;20033;-88
2021/12/19 00:20:04;;;;;;;5.63;1.50;;;;;;;;;;5033970;28;20029;-88
2021/12/19 00:22:29;;;;;;;8.00;2.03;;;;;;;;;;5052324;28;20066;-88
2021/12/19 00:24:54;;;;;;;5.90;1.95;;;;;;;;;;5052753;28;20369;-87
2021/12/19 00:27:19;;;;;;;8.30;1.97;;;;;;;;;;5052947;28;20052;-88
2021/12/19 00:29:45;;;;;;;9.53;2.70;;;;;;;;;;5053295;28;20347;-88
2021/12/19 00:32:10;;;;;;;10.97;2.77;;;;;;;;;;5033656;28;20272;-88
2021/12/19 00:34:35;;;;;;;6.63;2.33;;;;;;;;;;5035676;28;20279;-88
2021/12/19 00:37:00;;;;;;;6.93;2.57;;;;;;;;;;5052105;28;20280;-88
2021/12/19 00:39:25;;;;;;;6.30;2.22;;;;;;;;;;5051903;28;20263;-88
2021/12/19 00:41:52;;;;;;;10.55;2.50;;;;;;;;;;5051645;28;20059;-88
2021/12/19 00:44:23;;;;;;;8.77;2.80;;;;;;;;;;5032903;28;20124;-88
2021/12/19 00:46:51;;;;;;;13.00;2.70;;;;;;;;;;5050650;28;20519;-88
2021/12/19 00:49:17;;;;;;;17.50;2.92;;;;;;;;;;5032962;28;20067;-88
2021/12/19 00:51:43;;;;;;;6.70;2.67;;;;;;;;;;5051061;28;20036;-87
2021/12/19 00:54:09;;;;;;;11.48;2.88;;;;;;;;;;5050567;28;20056;-87
2021/12/19 00:56:35;;;;;;;9.80;2.45;;;;;;;;;;5050766;28;20025;-87
2021/12/19 00:59:00;;;;;;;6.45;1.70;;;;;;;;;;5050965;28;20025;-87
2021/12/19 01:01:26;;;;;;;5.65;2.00;;;;;;;;;;5053507;28;20147;-87
2021/12/19 01:03:51;;;;;;;2.75;1.30;;;;;;;;;;5032750;28;20357;-87
2021/12/19 01:06:18;;;;;;;9.75;2.50;;;;;;;;;;5032778;28;20731;-87
2021/12/19 01:08:44;;;;;;;6.75;1.75;;;;;;;;;;5051080;28;20130;-87
2021/12/19 01:11:10;;;;;;;2.83;1.50;;;;;;;;;;5032825;28;20021;-88
2021/12/19 01:13:35;;;;;;;5.30;1.80;;;;;;;;;;5050512;28;20361;-88
2021/12/19 01:16:01;;;;;;;7.18;3.00;;;;;;;;;;5050582;28;20440;-88
2021/12/19 01:18:27;;;;;;;8.68;2.83;;;;;;;;;;5050395;28;20516;-88
2021/12/19 01:20:52;;;;;;;11.85;3.03;;;;;;;;;;5032477;28;20095;-88
2021/12/19 01:23:17;;;;;;;9.23;2.80;;;;;;;;;;5050407;28;20092;-87
2021/12/19 01:25:43;;;;;;;13.18;2.63;;;;;;;;;;5050668;28;20829;-87
2021/12/19 01:28:09;;;;;;;15.45;3.60;;;;;;;;;;5053062;28;20556;-87
2021/12/19 01:30:35;;;;;;;13.35;3.30;;;;;;;;;;5050392;28;20029;-87
2021/12/19 01:33:00;;;;;;;12.75;3.03;;;;;;;;;;5050320;28;20028;-87
2021/12/19 01:35:27;;;;;;;13.40;3.20;;;;;;;;;;5050113;28;20027;-87
2021/12/19 01:37:52;;;;;;;16.05;3.53;;;;;;;;;;5050054;28;20040;-87
2021/12/19 01:40:18;;;;;;;15.88;3.78;;;;;;;;;;5050242;28;20508;-88
2021/12/19 01:42:45;;;;;;;15.18;3.65;;;;;;;;;;5050126;28;20025;-88
2021/12/19 01:45:11;;;;;;;15.43;4.15;;;;;;;;;;5050225;28;20025;-88
2021/12/19 01:47:36;;;;;;;13.48;3.65;;;;;;;;;;5050297;28;20452;-87
2021/12/19 01:50:03;;;;;;;18.35;4.10;;;;;;;;;;5032121;28;20057;-87
2021/12/19 01:52:30;;;;;;;20.60;4.32;;;;;;;;;;5050790;28;20074;-88
2021/12/19 01:54:56;;;;;;;10.82;3.20;;;;;;;;;;5031858;28;20106;-88
2021/12/19 01:57:22;;;;;;;10.88;2.78;;;;;;;;;;5050177;28;20108;-88
2021/12/19 01:59:47;;;;;;;25.83;4.15;;;;;;;;;;5049879;28;20021;-87
2021/12/19 02:02:13;;;;;;;9.00;3.08;;;;;;;;;;5050494;28;20021;-88
2021/12/19 02:04:38;;;;;;;19.48;4.63;;;;;;;;;;5050655;28;20071;-88
2021/12/19 02:07:04;;;;;;;14.38;3.63;;;;;;;;;;5032739;28;20106;-87
2021/12/19 02:09:29;;;;;;;13.75;3.58;;;;;;;;;;5050180;28;20082;-87
2021/12/19 02:11:54;;;;;;;8.18;2.53;;;;;;;;;;5032078;28;20021;-87
2021/12/19 02:14:20;;;;;;;16.60;3.67;;;;;;;;;;5050872;28;20389;-87
2021/12/19 02:16:45;;;;;;;14.77;3.90;;;;;;;;;;5050946;28;20025;-88
2021/12/19 02:19:11;;;;;;;15.20;3.50;;;;;;;;;;5033846;28;20021;-88
2021/12/19 02:21:36;;;;;;;15.23;3.40;;;;;;;;;;5039611;28;20290;-87
2021/12/19 02:24:03;;;;;;;14.93;3.00;;;;;;;;;;5034522;28;20025;-87
2021/12/19 02:26:29;;;;;;;15.90;4.40;;;;;;;;;;5051607;28;20494;-87
2021/12/19 02:28:54;;;;;;;16.58;3.08;;;;;;;;;;5051637;28;20116;-88
2021/12/19 02:31:21;;;;;;;10.83;3.33;;;;;;;;;;5050706;28;20029;-87
2021/12/19 02:34:00;;;;;;;14.13;3.20;;;;;;;;;;5033683;28;20266;-88
2021/12/19 02:36:41;;;;;;;13.52;3.22;;;;;;;;;;5054729;28;20039;-87
2021/12/19 02:50:06;;;;;;;10.68;3.13;;;;;;;;;;5055393;28;20603;-87
2021/12/19 02:52:31;;;;;;;12.25;2.80;;;;;;;;;;5036021;28;20048;-87
2021/12/19 02:54:57;;;;;;;14.98;3.13;;;;;;;;;;5035557;28;20057;-87
2021/12/19 02:57:22;;;;;;;16.98;4.03;;;;;;;;;;5035555;28;20029;-87
2021/12/19 02:59:47;;;;;;;16.73;3.33;;;;;;;;;;5053759;28;20025;-87
2021/12/19 03:02:12;;;;;;;14.55;3.28;;;;;;;;;;5054123;28;20029;-87
2021/12/19 03:04:38;;;;;;;18.60;3.42;;;;;;;;;;5053497;28;20017;-88
2021/12/19 03:07:03;;;;;;;11.97;3.23;;;;;;;;;;5054209;28;20047;-87
2021/12/19 03:17:59;;;;;;;15.57;3.63;;;;;;;;;;5053648;28;20078;-87
2021/12/19 03:20:30;;;;;;;14.30;3.00;;;;;;;;;;5058119;28;20179;-87
2021/12/19 03:22:56;;;;;;;12.30;3.00;;;;;;;;;;5054032;28;20709;-87
2021/12/19 03:25:21;;;;;;;20.35;3.85;;;;;;;;;;5053241;28;20029;-87
2021/12/19 03:27:46;;;;;;;15.27;3.10;;;;;;;;;;5053304;28;20087;-87
2021/12/19 03:30:12;;;;;;;23.00;4.78;;;;;;;;;;5034415;28;20029;-87
2021/12/19 03:32:38;;;;;;;12.43;4.20;;;;;;;;;;5052973;28;20063;-87
2021/12/19 03:35:03;;;;;;;17.13;3.47;;;;;;;;;;5053014;28;20034;-87
2021/12/19 03:37:28;;;;;;;20.95;3.55;;;;;;;;;;5052419;28;20028;-87
2021/12/19 03:40:07;;;;;;;24.00;4.57;;;;;;;;;;5052323;28;20032;-87
2021/12/19 03:42:34;;;;;;;18.00;4.45;;;;;;;;;;5052637;28;20025;-87
2021/12/19 03:44:59;;;;;;;21.10;3.40;;;;;;;;;;5033496;28;20025;-87
2021/12/19 03:47:24;;;;;;;17.63;3.60;;;;;;;;;;5034129;28;20041;-88
2021/12/19 03:49:50;;;;;;;22.10;4.15;;;;;;;;;;5036195;28;20404;-88
2021/12/19 03:52:15;;;;;;;16.77;2.90;;;;;;;;;;5052196;28;20024;-88
2021/12/19 03:54:41;;;;;;;21.58;3.55;;;;;;;;;;5051853;28;20299;-87
2021/12/19 03:57:07;;;;;;;18.27;3.75;;;;;;;;;;5052170;28;20088;-87
2021/12/19 03:59:32;;;;;;;20.38;4.13;;;;;;;;;;5052248;28;20061;-88
2021/12/19 04:01:57;;;;;;;16.88;4.45;;;;;;;;;;5033854;28;20033;-87
2021/12/19 04:04:22;;;;;;;18.40;2.92;;;;;;;;;;5051786;28;20040;-87
2021/12/19 04:06:48;;;;;;;22.13;4.28;;;;;;;;;;5051564;28;20464;-87
2021/12/19 04:09:13;;;;;;;23.60;3.47;;;;;;;;;;5033950;28;20572;-87
2021/12/19 04:11:39;;;;;;;14.30;3.33;;;;;;;;;;5052464;28;20263;-88
2021/12/19 04:14:04;;;;;;;18.25;3.55;;;;;;;;;;5051890;28;20029;-87
2021/12/19 04:16:29;;;;;;;18.75;3.53;;;;;;;;;;5051816;28;20100;-87
2021/12/19 04:18:54;;;;;;;18.55;4.05;;;;;;;;;;5037450;28;20029;-87
2021/12/19 04:21:19;;;;;;;12.00;3.10;;;;;;;;;;5052708;28;20024;-87
2021/12/19 04:23:45;;;;;;;16.67;3.58;;;;;;;;;;5051895;28;20773;-87
2021/12/19 04:26:10;;;;;;;20.98;3.88;;;;;;;;;;5052075;28;20029;-88
2021/12/19 04:28:35;;;;;;;14.90;4.20;;;;;;;;;;5033941;28;20036;-88
2021/12/19 04:31:02;;;;;;;17.23;3.67;;;;;;;;;;5051447;28;20024;-87
2021/12/19 04:33:29;;;;;;;17.25;3.03;;;;;;;;;;5051872;28;20017;-88
2021/12/19 04:36:00;;;;;;;23.38;5.28;;;;;;;;;;5051481;28;20032;-88
2021/12/19 04:41:40;;;;;;;20.08;3.45;;;;;;;;;;5052065;28;20075;-87
2021/12/19 04:44:32;;;;;;;21.67;3.55;;;;;;;;;;5051147;28;20838;-87
2021/12/19 04:58:02;;;;;;;19.70;3.25;;;;;;;;;;5007755;28;20156;-87
2021/12/19 05:00:40;;;;;;;23.42;3.58;;;;;;;;;;5048937;28;20036;-87
2021/12/19 05:03:18;;;;;;;23.35;4.35;;;;;;;;;;5050669;28;20078;-87
2021/12/19 05:14:22;;;;;;;20.67;4.35;;;;;;;;;;5047373;28;20052;-87
2021/12/19 05:16:49;;;;;;;21.38;4.05;;;;;;;;;;5032666;28;20025;-87
2021/12/19 05:19:31;;;;;;;19.58;3.38;;;;;;;;;;5032727;28;20035;-87
2021/12/19 05:22:00;;;;;;;18.80;3.63;;;;;;;;;;5035678;28;20025;-87
2021/12/19 05:27:06;;;;;;;22.55;4.72;;;;;;;;;;5050618;28;20044;-87
2021/12/19 05:29:31;;;;;;;14.20;3.80;;;;;;;;;;5032527;28;20476;-87
2021/12/19 05:31:57;;;;;;;23.77;4.10;;;;;;;;;;5032504;28;20087;-87
2021/12/19 05:34:22;;;;;;;24.10;3.45;;;;;;;;;;5050206;28;20039;-87
2021/12/19 05:47:25;;;;;;;21.00;3.50;;;;;;;;;;5050434;28;20032;-87
2021/12/19 05:49:50;;;;;;;21.80;4.30;;;;;;;;;;5050197;28;20023;-87
2021/12/19 05:52:15;;;;;;;25.37;4.20;;;;;;;;;;5049901;28;20476;-87
2021/12/19 05:54:40;;;;;;;25.45;4.25;;;;;;;;;;5032427;28;20314;-87
2021/12/19 05:57:05;;;;;;;17.80;3.90;;;;;;;;;;5050154;28;20043;-87
2021/12/19 05:59:31;;;;;;;21.30;3.33;;;;;;;;;;5050218;28;20669;-87
2021/12/19 06:01:56;;;;;;;17.67;3.30;;;;;;;;;;5050350;28;20388;-87
2021/12/19 06:04:21;;;;;;;17.42;3.65;;;;;;;;;;5050213;28;20082;-87
2021/12/19 06:06:46;;;;;;;23.42;4.93;;;;;;;;;;5050831;28;20087;-87
2021/12/19 06:09:12;;;;;;;21.43;4.17;;;;;;;;;;5035411;28;20020;-87
2021/12/19 06:11:37;;;;;;;19.10;3.63;;;;;;;;;;5037212;28;21164;-87
2021/12/19 06:14:03;;;;;;;16.25;4.88;;;;;;;;;;5055487;28;20028;-87
2021/12/19 06:16:28;;;;;;;21.13;4.13;;;;;;;;;;5054948;28;20051;-87
2021/12/19 06:18:53;;;;;;;23.88;3.80;;;;;;;;;;5055315;28;20029;-87
2021/12/19 06:21:18;;;;;;;23.63;5.20;;;;;;;;;;5055046;28;20033;-87
2021/12/19 06:23:44;;;;;;;22.83;3.87;;;;;;;;;;5036864;28;20294;-87
2021/12/19 06:26:11;;;;;;;20.30;3.83;;;;;;;;;;5056056;28;20263;-86
2021/12/19 06:28:36;;;;;;;17.80;4.07;;;;;;;;;;5037474;28;20044;-87
2021/12/19 06:31:01;;;;;;;17.45;4.15;;;;;;;;;;5036436;28;20378;-87
2021/12/19 06:33:26;;;;;;;17.55;5.22;;;;;;;;;;5054401;28;20066;-87
2021/12/19 06:35:52;;;;;;;20.70;3.63;;;;;;;;;;5054351;28;20029;-87
2021/12/19 06:38:17;;;;;;;16.65;3.60;;;;;;;;;;5036511;28;20271;-87
2021/12/19 06:40:42;;;;;;;21.50;4.90;;;;;;;;;;5054500;28;20013;-87
2021/12/19 06:43:07;;;;;;;19.75;4.07;;;;;;;;;;5054608;28;20288;-87
2021/12/19 06:45:33;;;;;;;18.30;3.23;;;;;;;;;;5054448;28;20111;-87
2021/12/19 06:47:58;;;;;;;25.60;4.57;;;;;;;;;;5054356;28;20284;-87
2021/12/19 06:50:23;;;;;;;16.80;3.33;;;;;;;;;;5054602;28;20053;-87
2021/12/19 06:52:49;;;;;;;17.13;3.55;;;;;;;;;;5036524;28;20743;-87
2021/12/19 06:55:15;;;;;;;19.17;4.35;;;;;;;;;;5038024;28;20052;-87
2021/12/19 06:57:40;;;;;;;19.52;3.75;;;;;;;;;;5036338;28;20024;-87
2021/12/19 07:00:06;;;;;;;23.10;4.80;;;;;;;;;;5054244;28;20091;-87
2021/12/19 07:02:31;;;;;;;22.88;4.45;;;;;;;;;;5036199;28;20029;-87
2021/12/19 07:04:56;;;;;;;17.03;3.57;;;;;;;;;;5054040;28;20083;-87
2021/12/19 07:07:22;;;;;;;18.27;3.27;;;;;;;;;;5035011;28;20441;-87
2021/12/19 07:09:48;;;;;;;23.05;4.32;;;;;;;;;;5052789;28;20346;-87
2021/12/19 07:12:13;;;;;;;19.80;3.75;;;;;;;;;;5052928;28;20100;-87
2021/12/19 07:14:38;;;;;;;21.25;4.18;;;;;;;;;;5034717;28;20020;-87
2021/12/19 07:17:03;;;;;;;26.98;4.43;;;;;;;;;;5053054;28;20021;-87
2021/12/19 07:19:29;;;;;;;25.30;5.13;;;;;;;;;;5052091;28;20431;-87
2021/12/19 07:21:54;;;;;;;18.73;3.80;;;;;;;;;;5054242;28;20033;-86
2021/12/19 07:24:19;;;;;;;20.43;4.43;;;;;;;;;;5052360;28;20033;-87
2021/12/19 07:26:44;;;;;;;18.98;3.67;;;;;;;;;;5052659;28;20287;-87
2021/12/19 07:29:10;;;;;;;19.83;4.45;;;;;;;;;;5052545;28;20516;-87
2021/12/19 07:31:37;;;;;;;25.10;4.13;;;;;;;;;;5034199;28;20120;-87
2021/12/19 07:34:03;;;;;;;25.90;4.28;;;;;;;;;;5034399;28;20116;-87
2021/12/19 07:36:36;;;;;;;23.67;4.22;;;;;;;;;;5034527;28;20528;-87
2021/12/19 07:39:04;;;;;;;21.63;4.38;;;;;;;;;;5052483;28;20469;-87
2021/12/19 07:41:29;;;;;;;27.95;5.82;;;;;;;;;;5052186;28;20468;-86
2021/12/19 07:43:55;;;;;;;29.98;5.30;;;;;;;;;;5052000;28;20035;-87
2021/12/19 07:46:21;;;;;;;20.88;5.20;;;;;;;;;;5052382;28;20072;-87
2021/12/19 07:48:46;;;;;;;31.40;5.40;;;;;;;;;;5053478;28;20037;-87
2021/12/19 07:51:11;;;;;;;29.33;5.90;;;;;;;;;;5052431;28;20283;-87
2021/12/19 07:53:36;;;;;;;24.92;6.25;;;;;;;;;;5052113;28;21147;-87
2021/12/19 07:56:02;;;;;;;27.13;6.60;;;;;;;;;;5052035;28;20029;-87
2021/12/19 07:58:27;;;;;;;25.55;5.72;;;;;;;;;;5051884;28;20036;-86
2021/12/19 08:00:53;;;;;;;22.92;4.90;;;;;;;;;;5033838;28;20025;-87
2021/12/19 08:03:18;;;;;;;24.05;4.40;;;;;;;;;;5033564;28;20024;-87
2021/12/19 08:05:43;;;;;;;34.15;5.63;;;;;;;;;;5051502;28;20025;-88
2021/12/19 08:08:10;;;;;;;21.45;4.00;;;;;;;;;;5051701;28;20040;-87
2021/12/19 08:13:02;;;;;;;24.97;6.00;;;;;;;;;;5052250;28;20029;-87
2021/12/19 08:15:27;;;;;;;28.98;5.90;;;;;;;;;;5034498;28;20712;-88
2021/12/19 08:17:53;;;;;;;27.40;5.28;;;;;;;;;;5051538;28;20060;-87
2021/12/19 08:20:18;;;;;;;21.08;5.25;;;;;;;;;;5052047;28;20028;-87
2021/12/19 08:22:44;;;;;;;26.10;5.45;;;;;;;;;;5051972;28;20029;-87
2021/12/19 08:25:10;;;;;;;30.23;4.25;;;;;;;;;;5034211;28;20032;-87
2021/12/19 08:27:37;;;;;;;28.20;5.85;;;;;;;;;;5052509;28;20424;-87
2021/12/19 08:30:03;;;;;;;24.80;5.68;;;;;;;;;;5052290;28;20118;-87
2021/12/19 08:32:28;;;;;;;16.58;3.67;;;;;;;;;;5051903;28;20021;-87
2021/12/19 08:34:53;;;;;;;24.87;5.27;;;;;;;;;;5034564;28;20056;-87
2021/12/19 08:37:18;;;;;;;25.25;5.18;;;;;;;;;;5052422;28;20263;-87
2021/12/19 08:39:44;;;;;;;25.73;4.82;;;;;;;;;;5033293;28;20083;-87
2021/12/19 08:42:10;;;;;;;27.83;6.32;;;;;;;;;;5050911;28;20039;-87
2021/12/19 08:44:35;;;;;;;26.93;5.00;;;;;;;;;;5050695;28;20037;-87
2021/12/19 08:47:00;;;;;;;24.45;6.32;;;;;;;;;;5050791;28;20279;-87
2021/12/19 08:49:26;;;;;;;25.65;5.13;;;;;;;;;;5032971;28;20091;-86
2021/12/19 08:51:51;;;;;;;18.90;4.73;;;;;;;;;;5050790;28;20036;-87
2021/12/19 08:54:16;;;;;;;27.20;5.57;;;;;;;;;;5032714;28;20406;-88
2021/12/19 08:56:42;;;;;;;31.13;4.60;;;;;;;;;;5032720;28;20271;-87
2021/12/19 08:59:07;;;;;;;23.98;5.30;;;;;;;;;;5051010;28;20094;-87
2021/12/19 09:01:32;;;;;;;29.70;5.80;;;;;;;;;;5032884;28;20357;-87
2021/12/19 09:03:58;;;;;;;27.77;4.75;;;;;;;;;;5050804;28;20021;-87
2021/12/19 09:06:23;;;;;;;27.27;4.43;;;;;;;;;;5050691;28;20053;-87
2021/12/19 09:08:49;;;;;;;30.80;5.47;;;;;;;;;;5050740;28;20091;-87
2021/12/19 09:11:14;;;;;;;19.80;4.97;;;;;;;;;;5051065;28;20112;-86
2021/12/19 09:13:39;;;;;;;34.90;5.82;;;;;;;;;;5050547;28;20019;-86
2021/12/19 09:16:04;;;;;;;25.73;4.57;;;;;;;;;;5050682;28;20491;-87
2021/12/19 09:18:29;;;;;;;28.17;4.72;;;;;;;;;;5032350;28;20025;-87
2021/12/19 09:20:55;;;;;;;24.65;4.40;;;;;;;;;;5050195;28;20025;-87
2021/12/19 09:23:20;;;;;;;28.73;5.38;;;;;;;;;;5050317;28;20029;-87
2021/12/19 09:25:45;;;;;;;27.65;4.80;;;;;;;;;;5050478;28;20076;-88
2021/12/19 09:28:11;;;;;;;27.90;4.88;;;;;;;;;;5032037;28;20047;-88
2021/12/19 09:30:36;;;;;;;22.95;5.72;;;;;;;;;;5051682;28;20048;-88
2021/12/19 09:33:02;;;;;;;24.42;4.88;;;;;;;;;;5032185;28;20029;-88
2021/12/19 09:35:27;;;;;;;27.30;4.60;;;;;;;;;;5050728;28;20079;-87
2021/12/19 09:37:52;;;;;;;27.00;5.55;;;;;;;;;;5050193;28;20025;-87
2021/12/19 09:40:22;;;;;;;27.80;5.00;;;;;;;;;;5050524;28;20377;-87
2021/12/19 09:42:49;;;;;;;25.60;4.63;;;;;;;;;;5031857;28;20108;-87
2021/12/19 09:45:15;;;;;;;25.85;4.60;;;;;;;;;;5050233;28;20105;-87
2021/12/19 09:47:41;;;;;;;21.50;5.05;;;;;;;;;;5049751;28;20049;-87
2021/12/19 09:50:07;;;;;;;22.73;4.57;;;;;;;;;;5050387;28;20021;-87
2021/12/19 09:52:33;;;;;;;26.80;5.05;;;;;;;;;;5032603;28;20017;-86
2021/12/19 09:54:58;;;;;;;18.98;4.03;;;;;;;;;;5049977;28;20098;-87
2021/12/19 09:57:24;;;;;;;21.75;4.38;;;;;;;;;;5049961;28;20028;-87
2021/12/19 09:59:49;;;;;;;19.45;5.10;;;;;;;;;;5050102;28;20024;-86
2021/12/19 10:02:16;;;;;;;25.00;5.32;;;;;;;;;;5050166;28;20021;-87
2021/12/19 10:04:42;;;;;;;17.02;4.57;;;;;;;;;;5050101;28;20094;-87
2021/12/19 10:07:20;;;;;;;27.05;5.15;;;;;;;;;;5031597;28;20021;-88
2021/12/19 10:09:59;;;;;;;20.23;4.95;;;;;;;;;;5049610;28;20023;-88
2021/12/19 10:15:01;;;;;;;20.00;3.80;;;;;;;;;;5050816;28;20029;-91
2021/12/19 10:17:26;;;;;;;19.73;4.57;;;;;;;;;;5032645;28;20909;-90
2021/12/19 10:19:57;;;;;;;21.05;4.63;;;;;;;;;;5050826;28;20021;-91
2021/12/19 10:22:33;;;;;;;23.58;4.10;;;;;;;;;;5051119;28;20045;-91
2021/12/19 10:25:10;;;;;;;26.00;4.55;;;;;;;;;;5036132;28;20120;-90
2021/12/19 10:30:27;;;;;;;21.17;4.68;;;;;;;;;;5078463;22;20179;-91
2021/12/19 10:35:59;;;;;;;25.23;4.22;;;;;;;;;;5362060;22;20084;-92
2021/12/19 11:00:39;;;;;;;18.67;3.13;;;;;;;;;;5051678;28;20057;-87
2021/12/19 11:03:04;;;;;;;17.17;4.03;;;;;;;;;;5048884;28;20426;-88
2021/12/19 11:05:37;;;;;;;13.63;3.10;;;;;;;;;;5015013;28;20030;-88
2021/12/19 11:08:08;;;;;;;18.15;4.05;;;;;;;;;;5015777;28;20292;-88
2021/12/19 11:10:33;;;;;;;14.15;3.75;;;;;;;;;;5033585;28;20025;-88
2021/12/19 11:13:12;;;;;;;19.67;3.78;;;;;;;;;;5016157;28;20031;-88
2021/12/19 11:15:38;;;;;;;18.05;3.72;;;;;;;;;;5033350;28;20784;-88
2021/12/19 11:18:04;;;;;;;17.92;3.85;;;;;;;;;;5015707;28;20021;-88
2021/12/19 11:20:29;;;;;;;24.25;3.85;;;;;;;;;;5032142;28;21115;-88
2021/12/19 11:22:55;;;;;;;22.67;4.47;;;;;;;;;;5014666;28;20109;-88
2021/12/19 11:25:20;;;;;;;16.80;3.75;;;;;;;;;;5032973;28;20045;-88
2021/12/19 11:27:46;;;;;;;16.48;3.50;;;;;;;;;;5033703;28;20389;-88
2021/12/19 11:30:14;;;;;;;21.67;4.13;;;;;;;;;;5016375;28;20815;-88
2021/12/19 11:32:45;;;;;;;20.63;4.20;;;;;;;;;;5016095;28;20212;-88
2021/12/19 11:35:12;;;;;;;23.90;4.80;;;;;;;;;;5016097;28;20021;-88
2021/12/19 11:37:43;;;;;;;25.50;4.53;;;;;;;;;;5017019;28;20021;-88
2021/12/19 11:40:14;;;;;;;25.13;4.97;;;;;;;;;;5034565;28;20014;-88
2021/12/19 11:42:39;;;;;;;31.58;5.03;;;;;;;;;;5034441;28;20033;-88
2021/12/19 11:48:07;;;;;;;22.85;4.85;;;;;;;;;;5033322;28;20041;-88
2021/12/19 11:50:45;;;;;;;24.10;5.13;;;;;;;;;;5014447;28;20029;-88
2021/12/19 11:53:10;;;;;;;30.83;5.97;;;;;;;;;;5015345;28;20156;-89
2021/12/19 11:55:39;;;;;;;35.15;6.78;;;;;;;;;;5016009;28;20116;-89
2021/12/19 11:58:07;;;;;;;26.70;4.70;;;;;;;;;;5033325;28;20721;-89
2021/12/19 12:00:43;;;;;;;25.15;4.72;;;;;;;;;;5015793;28;20081;-89
2021/12/19 12:03:11;;;;;;;37.28;6.80;;;;;;;;;;5016007;28;20033;-89
2021/12/19 12:05:36;;;;;;;34.95;6.22;;;;;;;;;;5013717;28;20470;-89
2021/12/19 12:08:05;;;;;;;37.33;6.50;;;;;;;;;;5032472;28;20056;-88
2021/12/19 12:10:42;;;;;;;47.47;8.75;;;;;;;;;;5032153;28;20032;-88
2021/12/19 12:13:21;;;;;;;33.20;5.90;;;;;;;;;;5032001;28;20028;-88
2021/12/19 12:15:46;;;;;;;31.80;5.53;;;;;;;;;;5015298;28;20768;-89
2021/12/19 12:18:30;;;;;;;39.93;7.43;;;;;;;;;;5016806;28;20083;-89
2021/12/19 12:20:55;;;;;;;33.78;6.20;;;;;;;;;;5032786;28;20264;-88
2021/12/19 12:23:25;;;;;;;39.97;7.72;;;;;;;;;;5032063;28;20018;-89
2021/12/19 12:25:50;;;;;;;30.88;6.47;;;;;;;;;;5031721;28;20029;-89
2021/12/19 12:28:17;;;;;;;33.25;6.78;;;;;;;;;;5031673;28;20481;-89
2021/12/19 12:30:45;;;;;;;32.63;6.82;;;;;;;;;;5033147;28;20068;-89
2021/12/19 12:33:11;;;;;;;33.33;6.55;;;;;;;;;;5013555;28;20087;-89
2021/12/19 12:35:38;;;;;;;26.70;6.82;;;;;;;;;;5031796;28;20021;-88
2021/12/19 12:38:04;;;;;;;39.05;9.35;;;;;;;;;;5031731;28;20014;-88
2021/12/19 12:40:42;;;;;;;35.15;7.20;;;;;;;;;;5031487;28;20035;-88
2021/12/19 12:43:12;;;;;;;42.60;7.30;;;;;;;;;;5013966;28;20029;-88
2021/12/19 12:45:53;;;;;;;33.53;7.30;;;;;;;;;;5013780;28;20694;-89
2021/12/19 12:48:25;;;;;;;39.72;7.18;;;;;;;;;;5031491;28;20029;-88
2021/12/19 12:50:50;;;;;;;43.50;7.97;;;;;;;;;;5031770;28;20082;-87
2021/12/19 12:53:26;;;;;;;42.53;7.70;;;;;;;;;;5032604;28;20097;-89
2021/12/19 12:56:00;;;;;;;39.20;7.03;;;;;;;;;;5014817;28;20034;-87
2021/12/19 12:58:25;;;;;;;36.38;7.25;;;;;;;;;;5031572;28;20063;-88
2021/12/19 13:01:10;;;;;;;33.67;6.50;;;;;;;;;;5013156;28;20114;-88
2021/12/19 13:03:35;;;;;;;47.92;8.00;;;;;;;;;;5013156;28;20325;-88
2021/12/19 13:06:01;;;;;;;36.90;7.63;;;;;;;;;;5031642;28;20092;-88
2021/12/19 13:11:02;;;;;;;47.42;8.23;;;;;;;;;;4705834;26;20686;-89
2021/12/19 13:13:28;;;;;;;39.33;8.07;;;;;;;;;;5046504;28;20020;-88
2021/12/19 13:16:02;;;;;;;46.97;7.53;;;;;;;;;;5034542;28;20032;-89
2021/12/19 13:18:28;;;;;;;33.78;7.78;;;;;;;;;;5032470;28;20590;-89
2021/12/19 13:21:00;;;;;;;35.93;6.47;;;;;;;;;;5034430;28;20112;-88
2021/12/19 13:23:25;;;;;;;35.08;7.22;;;;;;;;;;5052755;28;20259;-88
2021/12/19 13:25:50;;;;;;;44.92;7.47;;;;;;;;;;5035024;28;20107;-88
2021/12/19 13:28:20;;;;;;;40.40;7.18;;;;;;;;;;5035188;28;20036;-88
2021/12/19 13:30:46;;;;;;;36.10;6.20;;;;;;;;;;5035411;28;20025;-88
2021/12/19 13:33:14;;;;;;;38.30;6.50;;;;;;;;;;5035164;28;20020;-89
2021/12/19 13:35:48;;;;;;;44.75;7.82;;;;;;;;;;5053055;28;20488;-89
2021/12/19 13:38:14;;;;;;;41.90;8.85;;;;;;;;;;5052924;28;20064;-88
2021/12/19 13:40:40;;;;;;;37.90;7.90;;;;;;;;;;5035190;28;20047;-89
2021/12/19 13:43:07;;;;;;;37.63;7.07;;;;;;;;;;5034898;28;20261;-89
2021/12/19 13:45:33;;;;;;;35.80;6.47;;;;;;;;;;5053279;28;20013;-88
2021/12/19 13:48:02;;;;;;;34.58;8.57;;;;;;;;;;5035117;28;20040;-88
2021/12/19 13:50:29;;;;;;;37.65;7.63;;;;;;;;;;5052505;28;20492;-89
2021/12/19 13:52:55;;;;;;;33.90;6.93;;;;;;;;;;5034689;28;20115;-88
2021/12/19 13:55:20;;;;;;;28.10;6.88;;;;;;;;;;5034984;28;20116;-89
2021/12/19 13:57:45;;;;;;;36.05;6.90;;;;;;;;;;5052342;28;20021;-88
2021/12/19 14:00:25;;;;;;;40.03;7.15;;;;;;;;;;5052543;28;20017;-88
2021/12/19 14:02:51;;;;;;;40.15;7.65;;;;;;;;;;5035663;28;20048;-88
2021/12/19 14:05:29;;;;;;;32.53;6.88;;;;;;;;;;5034609;28;20021;-89
2021/12/19 14:07:55;;;;;;;34.03;6.93;;;;;;;;;;5052355;28;20112;-89
2021/12/19 14:10:21;;;;;;;29.08;6.03;;;;;;;;;;5052341;28;20227;-89
2021/12/19 14:13:05;;;;;;;28.67;5.72;;;;;;;;;;5052369;28;20461;-88
2021/12/19 14:15:31;;;;;;;36.65;6.82;;;;;;;;;;5034751;28;20021;-89
2021/12/19 14:17:56;;;;;;;35.65;6.32;;;;;;;;;;5034625;28;20017;-89
2021/12/19 14:20:36;;;;;;;35.35;6.20;;;;;;;;;;5052497;28;20021;-89
2021/12/19 14:23:17;;;;;;;34.65;6.93;;;;;;;;;;5052333;28;20536;-89
2021/12/19 14:25:43;;;;;;;44.72;8.15;;;;;;;;;;5052676;28;20017;-89
2021/12/19 14:28:32;;;;;;;34.47;7.05;;;;;;;;;;5034799;28;20746;-88
2021/12/19 14:31:05;;;;;;;32.90;8.95;;;;;;;;;;5039153;28;20025;-88
2021/12/19 14:33:35;;;;;;;32.55;8.40;;;;;;;;;;5057107;28;20104;-88
2021/12/19 14:36:02;;;;;;;47.17;8.00;;;;;;;;;;5057264;28;20010;-88
2021/12/19 14:38:27;;;;;;;39.05;7.05;;;;;;;;;;5056647;28;20017;-88
2021/12/19 14:40:57;;;;;;;37.55;6.47;;;;;;;;;;5037651;28;20384;-88
2021/12/19 14:43:22;;;;;;;34.63;6.50;;;;;;;;;;5053714;28;20096;-88
2021/12/19 14:45:47;;;;;;;41.17;9.67;;;;;;;;;;5035861;28;20116;-90
2021/12/19 14:48:18;;;;;;;38.92;7.10;;;;;;;;;;5053503;28;20298;-88
2021/12/19 14:50:48;;;;;;;33.42;6.43;;;;;;;;;;5035214;28;20075;-88
2021/12/19 14:53:23;;;;;;;33.17;6.72;;;;;;;;;;5052337;28;20028;-87
2021/12/19 14:55:51;;;;;;;24.48;5.47;;;;;;;;;;5052946;28;20029;-88
2021/12/19 14:58:16;;;;;;;27.90;5.55;;;;;;;;;;5053443;28;20025;-87
2021/12/19 15:00:43;;;;;;;33.20;8.30;;;;;;;;;;5035291;28;20460;-88
2021/12/19 15:03:08;;;;;;;44.95;6.97;;;;;;;;;;5034708;28;20025;-88
2021/12/19 15:05:35;;;;;;;31.15;6.63;;;;;;;;;;5052968;28;20021;-88
2021/12/19 15:08:05;;;;;;;37.90;8.10;;;;;;;;;;5035474;28;20044;-88
2021/12/19 15:10:30;;;;;;;36.58;6.75;;;;;;;;;;5040181;28;20091;-89
2021/12/19 15:12:56;;;;;;;25.52;5.53;;;;;;;;;;5074668;28;20044;-89
2021/12/19 15:15:21;;;;;;;38.08;7.03;;;;;;;;;;5074616;28;20031;-89
2021/12/19 15:17:46;;;;;;;37.13;6.55;;;;;;;;;;5073247;28;20497;-88
2021/12/19 15:20:11;;;;;;;30.85;7.20;;;;;;;;;;5054527;28;20031;-88
2021/12/19 15:22:41;;;;;;;35.67;5.82;;;;;;;;;;5055821;28;20025;-89
2021/12/19 15:25:07;;;;;;;29.35;6.57;;;;;;;;;;5037062;28;20045;-89
2021/12/19 15:27:32;;;;;;;41.65;7.22;;;;;;;;;;5036007;28;20129;-89
2021/12/19 15:29:57;;;;;;;35.63;7.40;;;;;;;;;;5052702;28;20219;-89
2021/12/19 15:32:23;;;;;;;37.03;8.02;;;;;;;;;;5034608;28;20392;-89
2021/12/19 15:34:48;;;;;;;35.97;7.50;;;;;;;;;;5034895;28;20108;-89
2021/12/19 15:37:13;;;;;;;36.42;9.60;;;;;;;;;;5034388;28;20020;-89
2021/12/19 15:39:40;;;;;;;44.15;10.07;;;;;;;;;;5035144;28;20025;-89
2021/12/19 15:42:06;;;;;;;28.45;7.10;;;;;;;;;;5051900;28;20480;-89
2021/12/19 15:44:31;;;;;;;35.33;6.32;;;;;;;;;;5052630;28;20016;-89
2021/12/19 15:46:58;;;;;;;31.95;7.97;;;;;;;;;;5034403;28;20025;-89
2021/12/19 15:49:24;;;;;;;35.80;7.90;;;;;;;;;;5052309;28;20120;-88
2021/12/19 15:51:50;;;;;;;35.33;6.20;;;;;;;;;;5052782;28;20083;-88
2021/12/19 15:54:15;;;;;;;33.47;6.20;;;;;;;;;;5034128;28;20023;-89
2021/12/19 15:56:40;;;;;;;30.90;6.63;;;;;;;;;;5034128;28;20278;-88
2021/12/19 15:59:05;;;;;;;38.95;6.45;;;;;;;;;;5052452;28;20057;-89
2021/12/19 16:01:30;;;;;;;30.00;9.10;;;;;;;;;;5034072;28;20033;-88
2021/12/19 16:03:57;;;;;;;35.20;8.10;;;;;;;;;;5053042;28;20287;-88
2021/12/19 16:06:24;;;;;;;40.20;6.07;;;;;;;;;;5052524;28;20013;-89
2021/12/19 16:08:49;;;;;;;35.00;6.15;;;;;;;;;;5051829;28;20029;-89
2021/12/19 16:11:15;;;;;;;36.17;6.18;;;;;;;;;;5034257;28;20027;-89